Antelope, Montana
Current Conditions -  °F | °C
As of 2:52 AM on Saturday 25 Oct 2014 (Local Time) from KISN Reporting Station
Clear Clear  
Wind Chill:   Ceiling: Unl
Heat Index:   Visibility: 10mi
Dew Point: -1°   Wind: 5mph
Humidity: 60%   Direction: 150°SSE
Pressure: 30.09"   Gusts: NA
Location:  48.69°N, 104.46°W
Report Text: KISN 250852Z AUTO 15004KT 10SM CLR 06/M01 A3009 RMK AO2 SLP198 T00611011 53010
Loading
Personal Weather Stations






























Interactive Weather Map
Tropical Storm Tracking
New forecast layout! Learn more

10-Day Weather Forecast

Advertisements
Track Severe Weather on mobile